地図

経路データ

SID SEASON NUMBER BASIN SUBBASIN NAME ISO_TIME NATURE LAT LON WMO_WIND WMO_PRES WMO_AGENCY TRACK_TYPE DIST2LAND LANDFALL IFLAG USA_AGENCY USA_ATCF_ID USA_LAT USA_LON USA_RECORD USA_STATUS USA_WIND USA_PRES USA_SSHS USA_R34_NE USA_R34_SE USA_R34_SW USA_R34_NW USA_R50_NE USA_R50_SE USA_R50_SW USA_R50_NW USA_R64_NE USA_R64_SE USA_R64_SW USA_R64_NW USA_POCI USA_ROCI USA_RMW USA_EYE TOKYO_LAT TOKYO_LON TOKYO_GRADE TOKYO_WIND TOKYO_PRES TOKYO_R50_DIR TOKYO_R50_LONG TOKYO_R50_SHORT TOKYO_R30_DIR TOKYO_R30_LONG TOKYO_R30_SHORT TOKYO_LAND CMA_LAT CMA_LON CMA_CAT CMA_WIND CMA_PRES HKO_LAT HKO_LON HKO_CAT HKO_WIND HKO_PRES NEWDELHI_LAT NEWDELHI_LON NEWDELHI_GRADE NEWDELHI_WIND NEWDELHI_PRES NEWDELHI_CI NEWDELHI_DP NEWDELHI_POCI REUNION_LAT REUNION_LON REUNION_TYPE REUNION_WIND REUNION_PRES REUNION_TNUM REUNION_CI REUNION_RMW REUNION_R34_NE REUNION_R34_SE REUNION_R34_SW REUNION_R34_NW REUNION_R50_NE REUNION_R50_SE REUNION_R50_SW REUNION_R50_NW REUNION_R64_NE REUNION_R64_SE REUNION_R64_SW REUNION_R64_NW BOM_LAT BOM_LON BOM_TYPE BOM_WIND BOM_PRES BOM_TNUM BOM_CI BOM_RMW BOM_R34_NE BOM_R34_SE BOM_R34_SW BOM_R34_NW BOM_R50_NE BOM_R50_SE BOM_R50_SW BOM_R50_NW BOM_R64_NE BOM_R64_SE BOM_R64_SW BOM_R64_NW BOM_ROCI BOM_POCI BOM_EYE BOM_POS_METHOD BOM_PRES_METHOD NADI_LAT NADI_LON NADI_CAT NADI_WIND NADI_PRES WELLINGTON_LAT WELLINGTON_LON WELLINGTON_WIND WELLINGTON_PRES DS824_LAT DS824_LON DS824_STAGE DS824_WIND DS824_PRES TD9636_LAT TD9636_LON TD9636_STAGE TD9636_WIND TD9636_PRES TD9635_LAT TD9635_LON TD9635_WIND TD9635_PRES TD9635_ROCI NEUMANN_LAT NEUMANN_LON NEUMANN_CLASS NEUMANN_WIND NEUMANN_PRES MLC_LAT MLC_LON MLC_CLASS MLC_WIND MLC_PRES USA_GUST BOM_GUST BOM_GUST_PER REUNION_GUST REUNION_GUST_PER USA_SEAHGT USA_SEARAD_NE USA_SEARAD_SE USA_SEARAD_SW USA_SEARAD_NW STORM_SPEED STORM_DIR
1892043S15060 1892 10 SI MM NOT_NAMED 1892-02-12 00:00:00 TS -15.3000 59.5000 main 569 543 _________O____ -1 -15.3000 59.5000 TC 10 258
1892043S15060 1892 10 SI MM NOT_NAMED 1892-02-12 03:00:00 TS -15.4002 58.9951 main 543 521 _________P____ -1 -15.4002 58.9951 TC 10 258
1892043S15060 1892 10 SI MM NOT_NAMED 1892-02-12 06:00:00 TS -15.5000 58.5000 main 521 505 _________O____ -1 -15.5000 58.5000 TC 10 258
1892043S15060 1892 10 SI MM NOT_NAMED 1892-02-12 09:00:00 TS -15.5999 58.0275 main 504 492 _________P____ -1 -15.5999 58.0275 TC 9 257
1892043S15060 1892 10 SI MM NOT_NAMED 1892-02-12 12:00:00 TS -15.7000 57.6000 main 492 481 _________O____ -1 -15.7000 57.6000 TC 8 256
1892043S15060 1892 10 SI MM NOT_NAMED 1892-02-12 15:00:00 TS -15.7924 57.2349 main 482 472 _________P____ -1 -15.7924 57.2349 TC 7 253
1892043S15060 1892 10 SI MM NOT_NAMED 1892-02-12 18:00:00 TS -15.9000 56.9000 main 474 464 _________O____ -1 -15.9000 56.9000 TC 7 249
1892043S15060 1892 10 SI MM NOT_NAMED 1892-02-12 21:00:00 TS -16.0348 56.5724 main 468 454 _________P____ -1 -16.0348 56.5724 TC 7 246
1892043S15060 1892 10 SI MM NOT_NAMED 1892-02-13 00:00:00 TS -16.2000 56.2000 main 457 450 _________O____ -1 -16.2000 56.2000 TC 9 246
1892043S15060 1892 10 SI MM NOT_NAMED 1892-02-13 03:00:00 TS -16.3925 55.7225 main 455 449 _________P____ -1 -16.3925 55.7225 TC 10 247
1892043S15060 1892 10 SI MM NOT_NAMED 1892-02-13 06:00:00 TS -16.6000 55.2000 main 460 456 _________O____ -1 -16.6000 55.2000 TC 11 248
1892043S15060 1892 10 SI MM NOT_NAMED 1892-02-13 09:00:00 TS -16.7924 54.6998 main 472 433 _________P____ -1 -16.7924 54.6998 TC 10 247
1892043S15060 1892 10 SI MM NOT_NAMED 1892-02-13 12:00:00 TS -17.0000 54.2000 main 433 394 _________O____ -1 -17.0000 54.2000 TC 11 245
1892043S15060 1892 10 SI MM NOT_NAMED 1892-02-13 15:00:00 TS -17.2349 53.6999 main 394 360 _________P____ -1 -17.2349 53.6999 TC 11 242
1892043S15060 1892 10 SI MM NOT_NAMED 1892-02-13 18:00:00 TS -17.5000 53.2000 main 360 327 _________O____ -1 -17.5000 53.2000 TC 11 240
1892043S15060 1892 10 SI MM NOT_NAMED 1892-02-13 21:00:00 TS -17.7773 52.7072 main 327 289 _________P____ -1 -17.7773 52.7072 TC 11 238
1892043S15060 1892 10 SI MM NOT_NAMED 1892-02-14 00:00:00 TS -18.1000 52.2000 main 289 243 _________O____ -1 -18.1000 52.2000 TC 12 235
1892043S15060 1892 10 SI MM NOT_NAMED 1892-02-14 03:00:00 TS -18.4774 51.6573 main 245 195 _________P____ -1 -18.4774 51.6573 TC 13 233
1892043S15060 1892 10 SI MM NOT_NAMED 1892-02-14 06:00:00 TS -18.9000 51.1000 main 195 161 _________O____ -1 -18.9000 51.1000 TC 14 231
1892043S15060 1892 10 SI MM NOT_NAMED 1892-02-14 09:00:00 TS -19.3349 50.5423 main 150 123 _________P____ -1 -19.3349 50.5423 TC 14 229
1892043S15060 1892 10 SI MM NOT_NAMED 1892-02-14 12:00:00 TS -19.8000 50.0000 main 123 76 _________O____ -1 -19.8000 50.0000 TC 14 227
1892043S15060 1892 10 SI MM NOT_NAMED 1892-02-14 15:00:00 TS -20.2774 49.4846 main 80 56 _________P____ -1 -20.2774 49.4846 TC 14 223
1892043S15060 1892 10 SI MM NOT_NAMED 1892-02-14 18:00:00 TS -20.8000 49.0000 main 56 20 _________O____ -1 -20.8000 49.0000 TC 15 219
1892043S15060 1892 10 SI MM NOT_NAMED 1892-02-14 21:00:00 TS -21.4226 48.4980 main 20 0 _________P____ -1 -21.4226 48.4980 TC 15 215
1892043S15060 1892 10 SI MM NOT_NAMED 1892-02-15 00:00:00 TS -22.0000 48.1000 main 0 0 _________O____ -1 -22.0000 48.1000 TC 11 210
1892043S15060 1892 10 SI MM NOT_NAMED 1892-02-15 03:00:00 TS -22.3798 47.9043 main 0 0 _________P____ -1 -22.3798 47.9043 TC 8 202
1892043S15060 1892 10 SI MM NOT_NAMED 1892-02-15 06:00:00 TS -22.7000 47.8000 main 0 0 _________O____ -1 -22.7000 47.8000 TC 8 198
1892043S15060 1892 10 SI MM NOT_NAMED 1892-02-15 09:00:00 TS -23.1000 47.6425 main 0 0 _________P____ -1 -23.1000 47.6425 TC 9 199
1892043S15060 1892 10 SI MM NOT_NAMED 1892-02-15 12:00:00 TS -23.5000 47.5000 main 0 0 _________O____ -1 -23.5000 47.5000 TC 8 197
1892043S15060 1892 10 SI MM NOT_NAMED 1892-02-15 15:00:00 TS -23.8500 47.3849 main 0 0 _________P____ -1 -23.8500 47.3849 TC 7 195
1892043S15060 1892 10 SI MM NOT_NAMED 1892-02-15 18:00:00 TS -24.2000 47.3000 main 0 0 _________O____ -1 -24.2000 47.3000 TC 8 190
1892043S15060 1892 10 SI MM NOT_NAMED 1892-02-15 21:00:00 TS -24.5875 47.2426 main 0 0 _________P____ -1 -24.5875 47.2426 TC 8 186
1892043S15060 1892 10 SI MM NOT_NAMED 1892-02-16 00:00:00 TS -25.0000 47.2000 main 10 _________O____ -1 -25.0000 47.2000 TC 8 186

IBTrACS Databaseについて

本データベースは、米国NOAAが公開する1842年以降の世界の熱帯低気圧のベストトラックデータアーカイブInternational Best Track Archive for Climate Stewardship (IBTrACS)を、ウェブで閲覧しやすい形式に変換したものです。

最終更新日:2021-12-01